sensor_id;sensor_type;location;lat;lon;timestamp;P1;durP1;ratioP1;P2;durP2;ratioP2
9836;SDS011;4957;51.412;6.724;2023-03-01T00:00:46;10.73;;;6.70;;
9836;SDS011;4957;51.412;6.724;2023-03-01T00:03:11;11.87;;;6.90;;
9836;SDS011;4957;51.412;6.724;2023-03-01T00:05:43;9.53;;;6.03;;
9836;SDS011;4957;51.412;6.724;2023-03-01T00:08:09;12.97;;;6.63;;
9836;SDS011;4957;51.412;6.724;2023-03-01T00:10:35;12.33;;;6.73;;
9836;SDS011;4957;51.412;6.724;2023-03-01T00:13:00;11.17;;;6.70;;
9836;SDS011;4957;51.412;6.724;2023-03-01T00:15:26;9.67;;;6.47;;
9836;SDS011;4957;51.412;6.724;2023-03-01T00:17:52;8.17;;;6.23;;
9836;SDS011;4957;51.412;6.724;2023-03-01T00:20:17;12.20;;;6.77;;
9836;SDS011;4957;51.412;6.724;2023-03-01T00:22:43;13.63;;;6.90;;
9836;SDS011;4957;51.412;6.724;2023-03-01T00:25:09;11.93;;;6.73;;
9836;SDS011;4957;51.412;6.724;2023-03-01T00:27:34;9.97;;;6.60;;
9836;SDS011;4957;51.412;6.724;2023-03-01T00:30:00;11.53;;;6.70;;
9836;SDS011;4957;51.412;6.724;2023-03-01T00:32:26;9.67;;;6.63;;
9836;SDS011;4957;51.412;6.724;2023-03-01T00:34:51;11.27;;;6.70;;
9836;SDS011;4957;51.412;6.724;2023-03-01T00:37:23;13.33;;;5.67;;
9836;SDS011;4957;51.412;6.724;2023-03-01T00:39:49;9.27;;;6.57;;
9836;SDS011;4957;51.412;6.724;2023-03-01T00:42:15;9.80;;;6.37;;
9836;SDS011;4957;51.412;6.724;2023-03-01T00:44:41;10.20;;;7.00;;
9836;SDS011;4957;51.412;6.724;2023-03-01T00:47:07;9.20;;;6.30;;
9836;SDS011;4957;51.412;6.724;2023-03-01T00:49:32;13.53;;;7.17;;
9836;SDS011;4957;51.412;6.724;2023-03-01T00:51:58;10.03;;;6.37;;
9836;SDS011;4957;51.412;6.724;2023-03-01T00:54:24;8.00;;;6.37;;
9836;SDS011;4957;51.412;6.724;2023-03-01T00:56:50;12.10;;;6.10;;
9836;SDS011;4957;51.412;6.724;2023-03-01T00:59:15;12.67;;;7.17;;
9836;SDS011;4957;51.412;6.724;2023-03-01T01:01:41;10.60;;;7.13;;
9836;SDS011;4957;51.412;6.724;2023-03-01T01:04:08;12.27;;;6.83;;
9836;SDS011;4957;51.412;6.724;2023-03-01T01:06:36;11.97;;;7.20;;
9836;SDS011;4957;51.412;6.724;2023-03-01T01:09:05;11.37;;;7.33;;
9836;SDS011;4957;51.412;6.724;2023-03-01T01:11:32;11.10;;;6.57;;
9836;SDS011;4957;51.412;6.724;2023-03-01T01:14:00;10.60;;;6.90;;
9836;SDS011;4957;51.412;6.724;2023-03-01T01:16:26;12.10;;;7.03;;
9836;SDS011;4957;51.412;6.724;2023-03-01T01:18:53;11.73;;;6.57;;
9836;SDS011;4957;51.412;6.724;2023-03-01T01:21:20;10.90;;;6.40;;
9836;SDS011;4957;51.412;6.724;2023-03-01T01:23:48;11.27;;;7.27;;
9836;SDS011;4957;51.412;6.724;2023-03-01T01:26:15;8.93;;;6.60;;
9836;SDS011;4957;51.412;6.724;2023-03-01T01:28:42;9.90;;;6.40;;
9836;SDS011;4957;51.412;6.724;2023-03-01T01:31:14;9.03;;;7.20;;
9836;SDS011;4957;51.412;6.724;2023-03-01T01:33:41;12.00;;;6.87;;
9836;SDS011;4957;51.412;6.724;2023-03-01T01:36:07;9.67;;;6.97;;
9836;SDS011;4957;51.412;6.724;2023-03-01T01:38:34;12.70;;;6.97;;
9836;SDS011;4957;51.412;6.724;2023-03-01T01:41:01;11.10;;;6.80;;
9836;SDS011;4957;51.412;6.724;2023-03-01T01:43:30;10.43;;;7.20;;
9836;SDS011;4957;51.412;6.724;2023-03-01T01:45:59;9.97;;;6.97;;
9836;SDS011;4957;51.412;6.724;2023-03-01T01:48:50;8.20;;;6.20;;
9836;SDS011;4957;51.412;6.724;2023-03-01T01:51:21;9.70;;;6.70;;
9836;SDS011;4957;51.412;6.724;2023-03-01T01:53:51;10.63;;;7.33;;
9836;SDS011;4957;51.412;6.724;2023-03-01T01:56:22;12.47;;;7.30;;
9836;SDS011;4957;51.412;6.724;2023-03-01T01:58:51;10.60;;;6.67;;
9836;SDS011;4957;51.412;6.724;2023-03-01T02:01:17;10.37;;;7.07;;
9836;SDS011;4957;51.412;6.724;2023-03-01T02:03:43;10.20;;;6.77;;
9836;SDS011;4957;51.412;6.724;2023-03-01T02:06:18;11.60;;;8.00;;
9836;SDS011;4957;51.412;6.724;2023-03-01T02:09:06;13.83;;;7.87;;
9836;SDS011;4957;51.412;6.724;2023-03-01T02:11:36;14.83;;;8.03;;
9836;SDS011;4957;51.412;6.724;2023-03-01T02:14:02;14.27;;;8.13;;
9836;SDS011;4957;51.412;6.724;2023-03-01T02:16:28;11.83;;;7.67;;
9836;SDS011;4957;51.412;6.724;2023-03-01T02:18:55;11.43;;;6.60;;
9836;SDS011;4957;51.412;6.724;2023-03-01T02:24:21;13.10;;;6.20;;
9836;SDS011;4957;51.412;6.724;2023-03-01T02:27:12;12.90;;;7.10;;
9836;SDS011;4957;51.412;6.724;2023-03-01T02:29:38;10.17;;;6.83;;
9836;SDS011;4957;51.412;6.724;2023-03-01T02:32:03;12.30;;;7.03;;
9836;SDS011;4957;51.412;6.724;2023-03-01T02:34:30;10.60;;;6.70;;
9836;SDS011;4957;51.412;6.724;2023-03-01T02:37:01;10.77;;;7.03;;
9836;SDS011;4957;51.412;6.724;2023-03-01T02:39:38;10.67;;;7.10;;
9836;SDS011;4957;51.412;6.724;2023-03-01T02:42:07;10.50;;;6.57;;
9836;SDS011;4957;51.412;6.724;2023-03-01T02:44:39;16.07;;;7.47;;
9836;SDS011;4957;51.412;6.724;2023-03-01T02:47:05;11.10;;;6.97;;
9836;SDS011;4957;51.412;6.724;2023-03-01T02:49:32;13.10;;;7.10;;
9836;SDS011;4957;51.412;6.724;2023-03-01T02:52:04;9.37;;;5.60;;
9836;SDS011;4957;51.412;6.724;2023-03-01T02:57:26;10.20;;;6.47;;
9836;SDS011;4957;51.412;6.724;2023-03-01T02:59:57;10.40;;;6.40;;
9836;SDS011;4957;51.412;6.724;2023-03-01T03:02:27;10.10;;;6.83;;
9836;SDS011;4957;51.412;6.724;2023-03-01T03:05:11;11.63;;;7.07;;
9836;SDS011;4957;51.412;6.724;2023-03-01T03:07:42;9.67;;;6.17;;
9836;SDS011;4957;51.412;6.724;2023-03-01T03:10:11;12.33;;;7.47;;
9836;SDS011;4957;51.412;6.724;2023-03-01T03:12:39;13.73;;;7.33;;
9836;SDS011;4957;51.412;6.724;2023-03-01T03:15:06;12.37;;;7.20;;
9836;SDS011;4957;51.412;6.724;2023-03-01T03:17:37;8.83;;;6.67;;
9836;SDS011;4957;51.412;6.724;2023-03-01T03:20:04;14.30;;;7.77;;
9836;SDS011;4957;51.412;6.724;2023-03-01T03:22:31;9.63;;;6.60;;
9836;SDS011;4957;51.412;6.724;2023-03-01T03:24:59;11.07;;;7.03;;
9836;SDS011;4957;51.412;6.724;2023-03-01T03:27:24;11.57;;;7.37;;
9836;SDS011;4957;51.412;6.724;2023-03-01T03:29:50;12.37;;;7.13;;
9836;SDS011;4957;51.412;6.724;2023-03-01T03:32:16;11.00;;;7.20;;
9836;SDS011;4957;51.412;6.724;2023-03-01T03:34:41;12.20;;;7.67;;
9836;SDS011;4957;51.412;6.724;2023-03-01T03:37:07;9.17;;;6.83;;
9836;SDS011;4957;51.412;6.724;2023-03-01T03:39:53;13.87;;;8.07;;
9836;SDS011;4957;51.412;6.724;2023-03-01T03:42:20;13.17;;;7.97;;
9836;SDS011;4957;51.412;6.724;2023-03-01T03:44:47;10.97;;;7.70;;
9836;SDS011;4957;51.412;6.724;2023-03-01T03:47:13;11.20;;;7.07;;
9836;SDS011;4957;51.412;6.724;2023-03-01T03:49:39;12.20;;;7.93;;
9836;SDS011;4957;51.412;6.724;2023-03-01T03:52:04;12.17;;;6.70;;
9836;SDS011;4957;51.412;6.724;2023-03-01T03:54:39;11.30;;;7.43;;
9836;SDS011;4957;51.412;6.724;2023-03-01T03:57:05;11.53;;;7.87;;
9836;SDS011;4957;51.412;6.724;2023-03-01T03:59:31;12.07;;;7.97;;
9836;SDS011;4957;51.412;6.724;2023-03-01T04:01:57;12.13;;;8.30;;
9836;SDS011;4957;51.412;6.724;2023-03-01T04:04:23;14.80;;;8.20;;
9836;SDS011;4957;51.412;6.724;2023-03-01T04:06:48;9.17;;;7.13;;
9836;SDS011;4957;51.412;6.724;2023-03-01T04:09:14;12.33;;;7.73;;
9836;SDS011;4957;51.412;6.724;2023-03-01T04:11:40;12.30;;;7.30;;
9836;SDS011;4957;51.412;6.724;2023-03-01T04:14:05;11.27;;;8.20;;
9836;SDS011;4957;51.412;6.724;2023-03-01T04:16:31;13.43;;;7.17;;
9836;SDS011;4957;51.412;6.724;2023-03-01T04:18:56;13.93;;;8.23;;
9836;SDS011;4957;51.412;6.724;2023-03-01T04:21:24;11.23;;;7.90;;
9836;SDS011;4957;51.412;6.724;2023-03-01T04:23:50;13.60;;;8.30;;
9836;SDS011;4957;51.412;6.724;2023-03-01T04:26:17;11.93;;;8.37;;
9836;SDS011;4957;51.412;6.724;2023-03-01T04:28:44;11.57;;;7.63;;
9836;SDS011;4957;51.412;6.724;2023-03-01T04:31:14;13.13;;;8.50;;
9836;SDS011;4957;51.412;6.724;2023-03-01T04:33:44;12.47;;;8.10;;
9836;SDS011;4957;51.412;6.724;2023-03-01T04:36:16;15.03;;;7.83;;
9836;SDS011;4957;51.412;6.724;2023-03-01T04:38:43;10.43;;;7.17;;
9836;SDS011;4957;51.412;6.724;2023-03-01T04:41:12;13.03;;;7.57;;
9836;SDS011;4957;51.412;6.724;2023-03-01T04:43:39;13.23;;;8.30;;
9836;SDS011;4957;51.412;6.724;2023-03-01T04:46:05;14.73;;;8.20;;
9836;SDS011;4957;51.412;6.724;2023-03-01T04:48:37;11.73;;;7.17;;
9836;SDS011;4957;51.412;6.724;2023-03-01T04:51:04;11.63;;;7.83;;
9836;SDS011;4957;51.412;6.724;2023-03-01T04:53:31;16.00;;;9.00;;
9836;SDS011;4957;51.412;6.724;2023-03-01T04:55:58;16.03;;;9.33;;
9836;SDS011;4957;51.412;6.724;2023-03-01T04:58:25;15.27;;;9.43;;
9836;SDS011;4957;51.412;6.724;2023-03-01T05:00:52;17.57;;;9.77;;
9836;SDS011;4957;51.412;6.724;2023-03-01T05:03:18;14.10;;;9.00;;
9836;SDS011;4957;51.412;6.724;2023-03-01T05:05:45;15.30;;;8.73;;
9836;SDS011;4957;51.412;6.724;2023-03-01T05:08:13;12.93;;;7.80;;
9836;SDS011;4957;51.412;6.724;2023-03-01T05:10:49;16.63;;;9.90;;
9836;SDS011;4957;51.412;6.724;2023-03-01T05:13:19;16.33;;;9.37;;
9836;SDS011;4957;51.412;6.724;2023-03-01T05:15:56;14.20;;;8.70;;
9836;SDS011;4957;51.412;6.724;2023-03-01T05:18:24;12.13;;;8.40;;
9836;SDS011;4957;51.412;6.724;2023-03-01T05:20:53;13.53;;;7.83;;
9836;SDS011;4957;51.412;6.724;2023-03-01T05:23:33;14.33;;;8.53;;
9836;SDS011;4957;51.412;6.724;2023-03-01T05:25:59;13.43;;;8.50;;
9836;SDS011;4957;51.412;6.724;2023-03-01T05:28:26;12.57;;;7.93;;
9836;SDS011;4957;51.412;6.724;2023-03-01T05:30:53;11.93;;;7.90;;
9836;SDS011;4957;51.412;6.724;2023-03-01T05:33:19;13.03;;;7.80;;
9836;SDS011;4957;51.412;6.724;2023-03-01T05:35:46;12.20;;;7.90;;
9836;SDS011;4957;51.412;6.724;2023-03-01T05:38:14;17.63;;;8.30;;
9836;SDS011;4957;51.412;6.724;2023-03-01T05:40:40;13.93;;;8.67;;
9836;SDS011;4957;51.412;6.724;2023-03-01T05:43:08;13.97;;;8.60;;
9836;SDS011;4957;51.412;6.724;2023-03-01T05:45:35;11.63;;;7.40;;
9836;SDS011;4957;51.412;6.724;2023-03-01T05:48:02;14.07;;;9.10;;
9836;SDS011;4957;51.412;6.724;2023-03-01T05:50:29;12.33;;;7.50;;
9836;SDS011;4957;51.412;6.724;2023-03-01T05:53:01;13.87;;;7.93;;
9836;SDS011;4957;51.412;6.724;2023-03-01T05:55:33;15.60;;;8.70;;
9836;SDS011;4957;51.412;6.724;2023-03-01T05:58:03;12.77;;;8.53;;
9836;SDS011;4957;51.412;6.724;2023-03-01T06:00:31;16.10;;;8.77;;
9836;SDS011;4957;51.412;6.724;2023-03-01T06:02:57;14.33;;;8.20;;
9836;SDS011;4957;51.412;6.724;2023-03-01T06:05:23;11.67;;;8.20;;
9836;SDS011;4957;51.412;6.724;2023-03-01T06:07:50;18.30;;;8.57;;
9836;SDS011;4957;51.412;6.724;2023-03-01T06:10:16;19.20;;;8.57;;
9836;SDS011;4957;51.412;6.724;2023-03-01T06:12:43;16.03;;;9.97;;
9836;SDS011;4957;51.412;6.724;2023-03-01T06:15:09;18.67;;;9.37;;
9836;SDS011;4957;51.412;6.724;2023-03-01T06:17:37;15.30;;;9.77;;
9836;SDS011;4957;51.412;6.724;2023-03-01T06:20:06;15.50;;;9.30;;
9836;SDS011;4957;51.412;6.724;2023-03-01T06:22:34;17.10;;;9.57;;
9836;SDS011;4957;51.412;6.724;2023-03-01T06:24:59;12.97;;;8.47;;
9836;SDS011;4957;51.412;6.724;2023-03-01T06:27:25;15.57;;;8.20;;
9836;SDS011;4957;51.412;6.724;2023-03-01T06:29:52;17.33;;;9.53;;
9836;SDS011;4957;51.412;6.724;2023-03-01T06:32:17;15.93;;;8.70;;
9836;SDS011;4957;51.412;6.724;2023-03-01T06:34:43;14.77;;;9.40;;
9836;SDS011;4957;51.412;6.724;2023-03-01T06:37:09;18.43;;;9.10;;
9836;SDS011;4957;51.412;6.724;2023-03-01T06:39:35;17.07;;;9.33;;
9836;SDS011;4957;51.412;6.724;2023-03-01T06:42:02;13.50;;;8.70;;
9836;SDS011;4957;51.412;6.724;2023-03-01T06:44:28;14.27;;;8.87;;
9836;SDS011;4957;51.412;6.724;2023-03-01T06:46:53;13.47;;;8.80;;
9836;SDS011;4957;51.412;6.724;2023-03-01T06:49:19;12.90;;;8.23;;
9836;SDS011;4957;51.412;6.724;2023-03-01T06:51:45;13.53;;;8.87;;
9836;SDS011;4957;51.412;6.724;2023-03-01T06:54:11;16.37;;;8.60;;
9836;SDS011;4957;51.412;6.724;2023-03-01T06:56:36;17.83;;;9.70;;
9836;SDS011;4957;51.412;6.724;2023-03-01T06:59:02;16.27;;;9.17;;
9836;SDS011;4957;51.412;6.724;2023-03-01T07:01:29;13.70;;;8.40;;
9836;SDS011;4957;51.412;6.724;2023-03-01T07:03:55;16.70;;;10.03;;
9836;SDS011;4957;51.412;6.724;2023-03-01T07:06:21;15.17;;;9.03;;
9836;SDS011;4957;51.412;6.724;2023-03-01T07:08:47;12.80;;;9.93;;
9836;SDS011;4957;51.412;6.724;2023-03-01T07:11:13;15.17;;;9.60;;
9836;SDS011;4957;51.412;6.724;2023-03-01T07:13:39;17.60;;;10.90;;
9836;SDS011;4957;51.412;6.724;2023-03-01T07:16:05;19.13;;;10.13;;
9836;SDS011;4957;51.412;6.724;2023-03-01T07:18:31;19.33;;;10.53;;
9836;SDS011;4957;51.412;6.724;2023-03-01T07:20:57;13.63;;;8.77;;
9836;SDS011;4957;51.412;6.724;2023-03-01T07:23:23;18.37;;;10.07;;
9836;SDS011;4957;51.412;6.724;2023-03-01T07:25:54;15.00;;;9.23;;
9836;SDS011;4957;51.412;6.724;2023-03-01T07:28:22;14.10;;;8.97;;
9836;SDS011;4957;51.412;6.724;2023-03-01T07:30:48;10.73;;;7.27;;
9836;SDS011;4957;51.412;6.724;2023-03-01T07:33:18;11.70;;;7.47;;
9836;SDS011;4957;51.412;6.724;2023-03-01T07:35:43;16.23;;;7.87;;
9836;SDS011;4957;51.412;6.724;2023-03-01T07:38:09;11.93;;;9.00;;
9836;SDS011;4957;51.412;6.724;2023-03-01T07:40:35;14.80;;;7.80;;
9836;SDS011;4957;51.412;6.724;2023-03-01T07:43:01;13.57;;;7.87;;
9836;SDS011;4957;51.412;6.724;2023-03-01T07:45:27;12.27;;;8.63;;
9836;SDS011;4957;51.412;6.724;2023-03-01T07:47:54;13.30;;;8.37;;
9836;SDS011;4957;51.412;6.724;2023-03-01T07:50:20;11.30;;;7.57;;
9836;SDS011;4957;51.412;6.724;2023-03-01T07:52:47;17.20;;;8.93;;
9836;SDS011;4957;51.412;6.724;2023-03-01T07:55:13;12.00;;;8.63;;
9836;SDS011;4957;51.412;6.724;2023-03-01T07:57:39;17.07;;;9.50;;
9836;SDS011;4957;51.412;6.724;2023-03-01T08:00:05;15.47;;;8.67;;
9836;SDS011;4957;51.412;6.724;2023-03-01T08:02:32;14.87;;;9.07;;
9836;SDS011;4957;51.412;6.724;2023-03-01T08:04:58;11.93;;;7.80;;
9836;SDS011;4957;51.412;6.724;2023-03-01T08:07:23;13.63;;;7.90;;
9836;SDS011;4957;51.412;6.724;2023-03-01T08:09:49;14.17;;;8.53;;
9836;SDS011;4957;51.412;6.724;2023-03-01T08:12:15;13.23;;;8.40;;
9836;SDS011;4957;51.412;6.724;2023-03-01T08:14:42;13.83;;;8.07;;
9836;SDS011;4957;51.412;6.724;2023-03-01T08:17:08;12.10;;;8.27;;
9836;SDS011;4957;51.412;6.724;2023-03-01T08:19:34;11.27;;;8.13;;
9836;SDS011;4957;51.412;6.724;2023-03-01T08:22:01;12.17;;;8.13;;
9836;SDS011;4957;51.412;6.724;2023-03-01T08:24:27;13.87;;;8.27;;
9836;SDS011;4957;51.412;6.724;2023-03-01T08:26:53;18.57;;;8.10;;
9836;SDS011;4957;51.412;6.724;2023-03-01T08:29:19;13.07;;;8.43;;
9836;SDS011;4957;51.412;6.724;2023-03-01T08:31:45;12.57;;;8.30;;
9836;SDS011;4957;51.412;6.724;2023-03-01T08:34:12;13.63;;;7.80;;
9836;SDS011;4957;51.412;6.724;2023-03-01T08:36:40;17.67;;;8.93;;
9836;SDS011;4957;51.412;6.724;2023-03-01T08:39:07;10.77;;;7.13;;
9836;SDS011;4957;51.412;6.724;2023-03-01T08:41:34;13.90;;;7.73;;
9836;SDS011;4957;51.412;6.724;2023-03-01T08:44:00;13.13;;;8.03;;
9836;SDS011;4957;51.412;6.724;2023-03-01T08:46:29;11.07;;;7.63;;
9836;SDS011;4957;51.412;6.724;2023-03-01T08:49:12;13.57;;;7.80;;
9836;SDS011;4957;51.412;6.724;2023-03-01T08:51:39;9.87;;;7.23;;
9836;SDS011;4957;51.412;6.724;2023-03-01T08:54:07;11.40;;;7.83;;
9836;SDS011;4957;51.412;6.724;2023-03-01T08:56:51;14.10;;;7.90;;
9836;SDS011;4957;51.412;6.724;2023-03-01T08:59:17;10.23;;;7.23;;
9836;SDS011;4957;51.412;6.724;2023-03-01T09:01:42;11.97;;;7.50;;
9836;SDS011;4957;51.412;6.724;2023-03-01T09:04:09;11.37;;;7.53;;
9836;SDS011;4957;51.412;6.724;2023-03-01T09:06:35;9.67;;;7.60;;
9836;SDS011;4957;51.412;6.724;2023-03-01T09:09:02;18.53;;;7.90;;
9836;SDS011;4957;51.412;6.724;2023-03-01T09:11:29;10.17;;;7.33;;
9836;SDS011;4957;51.412;6.724;2023-03-01T09:13:54;13.80;;;7.37;;
9836;SDS011;4957;51.412;6.724;2023-03-01T09:16:21;15.13;;;8.13;;
9836;SDS011;4957;51.412;6.724;2023-03-01T09:18:51;13.27;;;6.73;;
9836;SDS011;4957;51.412;6.724;2023-03-01T09:21:19;15.73;;;7.67;;
9836;SDS011;4957;51.412;6.724;2023-03-01T09:23:46;10.27;;;7.20;;
9836;SDS011;4957;51.412;6.724;2023-03-01T09:26:17;10.00;;;7.30;;
9836;SDS011;4957;51.412;6.724;2023-03-01T09:28:44;10.00;;;6.73;;
9836;SDS011;4957;51.412;6.724;2023-03-01T09:31:11;7.90;;;6.23;;
9836;SDS011;4957;51.412;6.724;2023-03-01T09:33:38;11.37;;;7.10;;
9836;SDS011;4957;51.412;6.724;2023-03-01T09:36:06;9.63;;;6.73;;
9836;SDS011;4957;51.412;6.724;2023-03-01T09:38:36;15.87;;;7.60;;
9836;SDS011;4957;51.412;6.724;2023-03-01T09:41:02;9.97;;;7.47;;
9836;SDS011;4957;51.412;6.724;2023-03-01T09:43:51;9.97;;;6.97;;
9836;SDS011;4957;51.412;6.724;2023-03-01T09:46:23;10.73;;;6.90;;
9836;SDS011;4957;51.412;6.724;2023-03-01T09:48:54;10.87;;;7.27;;
9836;SDS011;4957;51.412;6.724;2023-03-01T09:51:39;11.07;;;7.37;;
9836;SDS011;4957;51.412;6.724;2023-03-01T09:54:06;11.63;;;7.40;;
9836;SDS011;4957;51.412;6.724;2023-03-01T10:04:47;10.40;;;6.90;;
9836;SDS011;4957;51.412;6.724;2023-03-01T10:09:57;11.50;;;7.30;;
9836;SDS011;4957;51.412;6.724;2023-03-01T10:12:26;9.93;;;6.30;;
9836;SDS011;4957;51.412;6.724;2023-03-01T10:15:03;12.20;;;6.87;;
9836;SDS011;4957;51.412;6.724;2023-03-01T10:20:42;9.57;;;6.10;;
9836;SDS011;4957;51.412;6.724;2023-03-01T10:23:07;11.67;;;6.40;;
9836;SDS011;4957;51.412;6.724;2023-03-01T10:25:47;10.20;;;6.53;;
9836;SDS011;4957;51.412;6.724;2023-03-01T10:30:56;9.73;;;6.03;;
9836;SDS011;4957;51.412;6.724;2023-03-01T10:33:27;8.20;;;5.70;;
9836;SDS011;4957;51.412;6.724;2023-03-01T10:35:56;10.40;;;5.47;;
9836;SDS011;4957;51.412;6.724;2023-03-01T10:38:22;9.73;;;6.43;;
9836;SDS011;4957;51.412;6.724;2023-03-01T10:40:52;12.23;;;6.50;;
9836;SDS011;4957;51.412;6.724;2023-03-01T10:43:18;7.73;;;6.00;;
9836;SDS011;4957;51.412;6.724;2023-03-01T10:45:45;10.13;;;7.00;;
9836;SDS011;4957;51.412;6.724;2023-03-01T10:48:12;10.10;;;5.90;;
9836;SDS011;4957;51.412;6.724;2023-03-01T10:50:50;11.33;;;6.47;;
9836;SDS011;4957;51.412;6.724;2023-03-01T10:53:32;15.27;;;6.47;;
9836;SDS011;4957;51.412;6.724;2023-03-01T10:56:09;7.63;;;5.50;;
9836;SDS011;4957;51.412;6.724;2023-03-01T10:58:38;8.13;;;6.00;;
9836;SDS011;4957;51.412;6.724;2023-03-01T11:01:06;8.73;;;6.07;;
9836;SDS011;4957;51.412;6.724;2023-03-01T11:06:33;11.10;;;5.67;;
9836;SDS011;4957;51.412;6.724;2023-03-01T11:11:45;9.60;;;5.73;;
9836;SDS011;4957;51.412;6.724;2023-03-01T11:14:18;8.40;;;5.57;;
9836;SDS011;4957;51.412;6.724;2023-03-01T11:19:40;6.67;;;5.10;;
9836;SDS011;4957;51.412;6.724;2023-03-01T11:22:13;8.03;;;5.73;;
9836;SDS011;4957;51.412;6.724;2023-03-01T11:24:44;9.33;;;6.10;;
9836;SDS011;4957;51.412;6.724;2023-03-01T11:27:20;7.60;;;5.17;;
9836;SDS011;4957;51.412;6.724;2023-03-01T11:29:54;9.30;;;5.60;;
9836;SDS011;4957;51.412;6.724;2023-03-01T11:32:25;9.60;;;6.10;;
9836;SDS011;4957;51.412;6.724;2023-03-01T11:34:57;7.17;;;4.87;;
9836;SDS011;4957;51.412;6.724;2023-03-01T11:40:12;7.87;;;5.30;;
9836;SDS011;4957;51.412;6.724;2023-03-01T11:42:51;18.13;;;5.17;;
9836;SDS011;4957;51.412;6.724;2023-03-01T11:45:23;9.40;;;5.50;;
9836;SDS011;4957;51.412;6.724;2023-03-01T11:50:40;7.47;;;5.63;;
9836;SDS011;4957;51.412;6.724;2023-03-01T11:58:46;10.53;;;5.13;;
9836;SDS011;4957;51.412;6.724;2023-03-01T12:01:33;8.97;;;5.20;;
9836;SDS011;4957;51.412;6.724;2023-03-01T12:07:20;6.77;;;4.70;;
9836;SDS011;4957;51.412;6.724;2023-03-01T12:13:13;8.90;;;5.13;;
9836;SDS011;4957;51.412;6.724;2023-03-01T12:16:07;9.10;;;5.10;;
9836;SDS011;4957;51.412;6.724;2023-03-01T12:19:13;6.67;;;4.57;;
9836;SDS011;4957;51.412;6.724;2023-03-01T12:30:02;7.80;;;4.83;;
9836;SDS011;4957;51.412;6.724;2023-03-01T12:49:31;11.20;;;5.40;;
9836;SDS011;4957;51.412;6.724;2023-03-01T12:52:19;11.57;;;5.37;;
9836;SDS011;4957;51.412;6.724;2023-03-01T12:54:53;14.37;;;6.07;;
9836;SDS011;4957;51.412;6.724;2023-03-01T12:57:26;16.33;;;4.97;;
9836;SDS011;4957;51.412;6.724;2023-03-01T13:02:59;9.50;;;5.23;;
9836;SDS011;4957;51.412;6.724;2023-03-01T13:05:56;8.50;;;5.30;;
9836;SDS011;4957;51.412;6.724;2023-03-01T13:08:30;9.03;;;4.93;;
9836;SDS011;4957;51.412;6.724;2023-03-01T13:11:18;8.53;;;4.57;;
9836;SDS011;4957;51.412;6.724;2023-03-01T13:13:46;10.63;;;4.90;;
9836;SDS011;4957;51.412;6.724;2023-03-01T13:19:07;6.67;;;5.07;;
9836;SDS011;4957;51.412;6.724;2023-03-01T13:21:42;6.70;;;4.83;;
9836;SDS011;4957;51.412;6.724;2023-03-01T13:32:27;12.07;;;5.93;;
9836;SDS011;4957;51.412;6.724;2023-03-01T13:37:39;8.30;;;4.80;;
9836;SDS011;4957;51.412;6.724;2023-03-01T13:42:55;8.77;;;5.00;;
9836;SDS011;4957;51.412;6.724;2023-03-01T13:45:25;7.83;;;4.60;;
9836;SDS011;4957;51.412;6.724;2023-03-01T13:48:36;8.77;;;4.57;;
9836;SDS011;4957;51.412;6.724;2023-03-01T13:50:59;6.80;;;4.73;;
9836;SDS011;4957;51.412;6.724;2023-03-01T13:53:33;9.90;;;5.20;;
9836;SDS011;4957;51.412;6.724;2023-03-01T13:56:02;7.77;;;4.73;;
9836;SDS011;4957;51.412;6.724;2023-03-01T13:58:52;6.30;;;4.50;;
9836;SDS011;4957;51.412;6.724;2023-03-01T14:01:37;6.90;;;5.03;;
9836;SDS011;4957;51.412;6.724;2023-03-01T14:04:03;9.43;;;5.03;;
9836;SDS011;4957;51.412;6.724;2023-03-01T14:06:43;7.13;;;4.50;;
9836;SDS011;4957;51.412;6.724;2023-03-01T14:09:16;7.10;;;4.80;;
9836;SDS011;4957;51.412;6.724;2023-03-01T14:14:39;10.83;;;5.00;;
9836;SDS011;4957;51.412;6.724;2023-03-01T14:20:09;7.67;;;5.20;;
9836;SDS011;4957;51.412;6.724;2023-03-01T14:22:52;8.20;;;5.00;;
9836;SDS011;4957;51.412;6.724;2023-03-01T14:30:50;9.57;;;5.53;;
9836;SDS011;4957;51.412;6.724;2023-03-01T14:33:21;9.00;;;5.63;;
9836;SDS011;4957;51.412;6.724;2023-03-01T14:35:56;9.80;;;5.00;;
9836;SDS011;4957;51.412;6.724;2023-03-01T14:40:57;10.23;;;5.47;;
9836;SDS011;4957;51.412;6.724;2023-03-01T14:43:26;7.80;;;4.67;;
9836;SDS011;4957;51.412;6.724;2023-03-01T14:45:53;8.40;;;5.50;;
9836;SDS011;4957;51.412;6.724;2023-03-01T14:48:20;11.40;;;5.43;;
9836;SDS011;4957;51.412;6.724;2023-03-01T14:50:46;8.67;;;5.03;;
9836;SDS011;4957;51.412;6.724;2023-03-01T14:53:15;9.70;;;6.00;;
9836;SDS011;4957;51.412;6.724;2023-03-01T14:55:43;7.90;;;5.67;;
9836;SDS011;4957;51.412;6.724;2023-03-01T14:58:13;9.37;;;5.80;;
9836;SDS011;4957;51.412;6.724;2023-03-01T15:00:44;8.97;;;5.80;;
9836;SDS011;4957;51.412;6.724;2023-03-01T15:03:23;10.20;;;5.60;;
9836;SDS011;4957;51.412;6.724;2023-03-01T15:05:56;7.37;;;5.73;;
9836;SDS011;4957;51.412;6.724;2023-03-01T15:08:24;9.43;;;5.83;;
9836;SDS011;4957;51.412;6.724;2023-03-01T15:10:59;12.83;;;6.00;;
9836;SDS011;4957;51.412;6.724;2023-03-01T15:13:25;9.43;;;6.13;;
9836;SDS011;4957;51.412;6.724;2023-03-01T15:16:00;12.50;;;6.97;;
9836;SDS011;4957;51.412;6.724;2023-03-01T15:18:54;13.53;;;6.97;;
9836;SDS011;4957;51.412;6.724;2023-03-01T15:23:51;8.97;;;6.10;;
9836;SDS011;4957;51.412;6.724;2023-03-01T15:26:38;12.47;;;6.70;;
9836;SDS011;4957;51.412;6.724;2023-03-01T15:29:15;8.83;;;6.00;;
9836;SDS011;4957;51.412;6.724;2023-03-01T15:31:53;11.57;;;6.17;;
9836;SDS011;4957;51.412;6.724;2023-03-01T15:34:22;12.47;;;6.40;;
9836;SDS011;4957;51.412;6.724;2023-03-01T15:36:51;7.63;;;5.53;;
9836;SDS011;4957;51.412;6.724;2023-03-01T15:44:37;13.00;;;6.50;;
9836;SDS011;4957;51.412;6.724;2023-03-01T15:47:23;18.40;;;6.50;;
9836;SDS011;4957;51.412;6.724;2023-03-01T15:49:54;8.67;;;5.30;;
9836;SDS011;4957;51.412;6.724;2023-03-01T15:52:36;9.70;;;5.70;;
9836;SDS011;4957;51.412;6.724;2023-03-01T15:55:06;9.40;;;5.83;;
9836;SDS011;4957;51.412;6.724;2023-03-01T15:57:44;8.20;;;5.07;;
9836;SDS011;4957;51.412;6.724;2023-03-01T16:00:11;9.67;;;5.60;;
9836;SDS011;4957;51.412;6.724;2023-03-01T16:02:38;10.23;;;6.03;;
9836;SDS011;4957;51.412;6.724;2023-03-01T16:05:05;11.73;;;6.40;;
9836;SDS011;4957;51.412;6.724;2023-03-01T16:07:40;9.70;;;6.03;;
9836;SDS011;4957;51.412;6.724;2023-03-01T16:10:05;8.40;;;5.33;;
9836;SDS011;4957;51.412;6.724;2023-03-01T16:12:31;8.30;;;6.23;;
9836;SDS011;4957;51.412;6.724;2023-03-01T16:14:57;9.83;;;5.43;;
9836;SDS011;4957;51.412;6.724;2023-03-01T16:17:23;9.60;;;5.37;;
9836;SDS011;4957;51.412;6.724;2023-03-01T16:19:48;10.77;;;6.40;;
9836;SDS011;4957;51.412;6.724;2023-03-01T16:22:14;10.97;;;6.10;;
9836;SDS011;4957;51.412;6.724;2023-03-01T16:24:40;10.37;;;6.33;;
9836;SDS011;4957;51.412;6.724;2023-03-01T16:27:06;9.87;;;6.17;;
9836;SDS011;4957;51.412;6.724;2023-03-01T16:29:32;9.00;;;6.40;;
9836;SDS011;4957;51.412;6.724;2023-03-01T16:32:01;7.40;;;5.10;;
9836;SDS011;4957;51.412;6.724;2023-03-01T16:34:27;10.63;;;5.87;;
9836;SDS011;4957;51.412;6.724;2023-03-01T16:36:53;11.70;;;4.93;;
9836;SDS011;4957;51.412;6.724;2023-03-01T16:39:18;6.70;;;4.67;;
9836;SDS011;4957;51.412;6.724;2023-03-01T16:41:44;9.40;;;5.30;;
9836;SDS011;4957;51.412;6.724;2023-03-01T16:44:10;7.83;;;4.93;;
9836;SDS011;4957;51.412;6.724;2023-03-01T16:46:35;8.87;;;5.30;;
9836;SDS011;4957;51.412;6.724;2023-03-01T16:49:01;12.13;;;5.73;;
9836;SDS011;4957;51.412;6.724;2023-03-01T16:51:28;6.97;;;5.03;;
9836;SDS011;4957;51.412;6.724;2023-03-01T16:53:54;10.20;;;5.33;;
9836;SDS011;4957;51.412;6.724;2023-03-01T16:56:20;9.50;;;5.50;;
9836;SDS011;4957;51.412;6.724;2023-03-01T16:58:47;11.47;;;5.73;;
9836;SDS011;4957;51.412;6.724;2023-03-01T17:01:17;8.67;;;5.80;;
9836;SDS011;4957;51.412;6.724;2023-03-01T17:03:45;10.37;;;5.93;;
9836;SDS011;4957;51.412;6.724;2023-03-01T17:06:12;9.90;;;5.10;;
9836;SDS011;4957;51.412;6.724;2023-03-01T17:08:41;7.93;;;5.77;;
9836;SDS011;4957;51.412;6.724;2023-03-01T17:11:08;8.57;;;5.07;;
9836;SDS011;4957;51.412;6.724;2023-03-01T17:13:42;8.83;;;5.53;;